createdAt,value
2022-10-01T00:01:06.170Z,94876.16
2022-10-01T00:03:36.803Z,94880.50
2022-10-01T00:06:06.387Z,94869.25
2022-10-01T00:08:33.809Z,94870.06
2022-10-01T00:11:01.582Z,94872.50
2022-10-01T00:13:30.306Z,94872.34
2022-10-01T00:15:57.406Z,94880.06
2022-10-01T00:18:23.962Z,94876.00
2022-10-01T00:20:50.502Z,94873.97
2022-10-01T00:23:17.096Z,94873.00
2022-10-01T00:25:43.795Z,94873.53
2022-10-01T00:28:12.074Z,94881.41
2022-10-01T00:30:45.653Z,94882.50
2022-10-01T00:33:12.204Z,94886.84
2022-10-01T00:35:38.719Z,94883.31
2022-10-01T00:38:05.244Z,94882.66
2022-10-01T00:40:31.772Z,94878.31
2022-10-01T00:42:58.299Z,94870.59
2022-10-01T00:45:24.858Z,94866.38
2022-10-01T00:47:57.972Z,94867.84
2022-10-01T00:50:34.962Z,94859.78
2022-10-01T00:53:06.307Z,94869.16
2022-10-01T00:55:36.420Z,94869.25
2022-10-01T00:58:04.949Z,94865.25
2022-10-01T01:00:32.174Z,94874.00
2022-10-01T01:02:58.799Z,94873.34
2022-10-01T01:05:25.425Z,94871.31
2022-10-01T01:07:53.622Z,94870.50
2022-10-01T01:10:34.112Z,94871.31
2022-10-01T01:13:13.232Z,94868.91
2022-10-01T01:15:39.754Z,94862.28
2022-10-01T01:18:36.607Z,94867.06
2022-10-01T01:21:24.833Z,94859.47
2022-10-01T01:24:19.023Z,94863.34
2022-10-01T01:26:51.483Z,94862.94
2022-10-01T01:29:39.903Z,94856.31
2022-10-01T01:32:14.985Z,94860.66
2022-10-01T01:34:46.218Z,94860.78
2022-10-01T01:37:18.069Z,94852.44
2022-10-01T01:39:50.189Z,94857.44
2022-10-01T01:42:31.168Z,94859.47
2022-10-01T01:45:00.967Z,94859.34
2022-10-01T01:47:30.445Z,94850.13
2022-10-01T01:49:58.481Z,94857.84
2022-10-01T01:52:25.374Z,94855.63
2022-10-01T01:54:52.331Z,94852.28
2022-10-01T01:57:21.080Z,94856.09
2022-10-01T01:59:47.725Z,94853.66
2022-10-01T02:02:25.845Z,94848.78
2022-10-01T02:05:01.009Z,94845.69
2022-10-01T02:07:53.796Z,94848.59
2022-10-01T02:10:37.096Z,94851.06
2022-10-01T02:13:22.140Z,94847.84
2022-10-01T02:16:30.522Z,94843.53
2022-10-01T02:19:06.030Z,94843.16
2022-10-01T02:21:40.096Z,94848.47
2022-10-01T02:24:37.726Z,94840.38
2022-10-01T02:27:11.320Z,94834.69
2022-10-01T02:29:39.936Z,94841.88
2022-10-01T02:32:08.235Z,94840.53
2022-10-01T02:34:34.769Z,94847.13
2022-10-01T02:37:06.266Z,94836.59
2022-10-01T02:39:34.731Z,94830.47
2022-10-01T02:42:04.073Z,94825.09
2022-10-01T02:44:40.056Z,94821.06
2022-10-01T02:47:11.978Z,94816.63
2022-10-01T02:49:41.346Z,94819.88
2022-10-01T02:52:13.874Z,94815.03
2022-10-01T02:54:50.739Z,94809.22
2022-10-01T02:57:27.574Z,94811.50
2022-10-01T02:59:59.088Z,94812.19
2022-10-01T03:02:31.505Z,94811.38
2022-10-01T03:04:58.925Z,94813.69
2022-10-01T03:07:27.716Z,94814.38
2022-10-01T03:09:54.371Z,94810.72
2022-10-01T03:12:21.290Z,94805.56
2022-10-01T03:14:48.214Z,94814.91
2022-10-01T03:17:15.658Z,94821.66
2022-10-01T03:19:42.780Z,94819.06
2022-10-01T03:22:11.576Z,94818.00
2022-10-01T03:24:38.113Z,94812.19
2022-10-01T03:27:05.174Z,94812.34
2022-10-01T03:29:31.720Z,94816.41
2022-10-01T03:31:58.291Z,94809.50
2022-10-01T03:34:24.923Z,94799.38
2022-10-01T03:36:54.389Z,94805.47
2022-10-01T03:39:20.976Z,94797.22
2022-10-01T03:41:47.472Z,94809.25
2022-10-01T03:44:16.717Z,94806.13
2022-10-01T03:46:43.843Z,94791.28
2022-10-01T03:49:10.684Z,94793.31
2022-10-01T03:51:40.574Z,94795.97
2022-10-01T03:54:08.350Z,94803.44
2022-10-01T03:56:35.782Z,94793.16
2022-10-01T03:59:02.428Z,94789.09
2022-10-01T04:01:29.110Z,94794.09
2022-10-01T04:03:55.751Z,94797.09
2022-10-01T04:06:22.780Z,94795.19
2022-10-01T04:08:49.300Z,94803.03
2022-10-01T04:11:15.833Z,94806.81
2022-10-01T04:13:45.216Z,94800.34
2022-10-01T04:16:11.833Z,94808.72
2022-10-01T04:18:38.460Z,94803.97
2022-10-01T04:21:05.131Z,94796.94
2022-10-01T04:23:31.674Z,94801.69
2022-10-01T04:26:02.393Z,94811.66
2022-10-01T04:28:30.367Z,94804.91
2022-10-01T04:31:17.477Z,94804.78
2022-10-01T04:33:47.106Z,94807.47
2022-10-01T04:36:13.751Z,94803.81
2022-10-01T04:38:40.352Z,94813.69
2022-10-01T04:41:09.740Z,94811.66
2022-10-01T04:43:36.842Z,94817.47
2022-10-01T04:46:03.410Z,94818.03
2022-10-01T04:48:30.018Z,94812.59
2022-10-01T04:50:56.569Z,94816.81
2022-10-01T04:53:23.335Z,94811.66
2022-10-01T04:55:49.865Z,94809.91
2022-10-01T04:58:16.417Z,94815.59
2022-10-01T05:00:45.939Z,94809.09
2022-10-01T05:03:12.601Z,94804.13
2022-10-01T05:05:39.108Z,94812.34
2022-10-01T05:08:05.637Z,94807.06
2022-10-01T05:10:32.294Z,94804.75
2022-10-01T05:13:02.112Z,94795.03
2022-10-01T05:15:29.834Z,94802.06
2022-10-01T05:17:56.797Z,94792.47
2022-10-01T05:20:27.748Z,94810.00
2022-10-01T05:22:56.346Z,94822.31
2022-10-01T05:25:23.642Z,94818.53
2022-10-01T05:27:50.523Z,94820.84
2022-10-01T05:30:24.184Z,94819.50
2022-10-01T05:32:55.329Z,94821.25
2022-10-01T05:35:21.943Z,94816.09
2022-10-01T05:37:52.495Z,94823.00
2022-10-01T05:40:21.139Z,94829.19
2022-10-01T05:42:48.003Z,94833.78
2022-10-01T05:45:17.201Z,94837.16
2022-10-01T05:47:44.757Z,94831.63
2022-10-01T05:50:11.291Z,94832.66
2022-10-01T05:52:38.434Z,94822.25
2022-10-01T05:55:05.270Z,94831.03
2022-10-01T05:57:31.871Z,94830.91
2022-10-01T05:59:58.403Z,94827.25
2022-10-01T06:02:25.216Z,94829.13
2022-10-01T06:04:51.873Z,94836.28
2022-10-01T06:07:18.445Z,94828.97
2022-10-01T06:09:45.219Z,94834.72
2022-10-01T06:12:13.656Z,94836.09
2022-10-01T06:14:42.961Z,94834.88
2022-10-01T06:17:09.526Z,94836.06
2022-10-01T06:19:36.045Z,94828.59
2022-10-01T06:22:02.579Z,94823.97
2022-10-01T06:24:30.162Z,94821.03
2022-10-01T06:26:57.126Z,94831.53
2022-10-01T06:29:24.021Z,94833.31
2022-10-01T06:31:51.417Z,94831.94
2022-10-01T06:34:18.025Z,94835.03
2022-10-01T06:36:44.560Z,94841.06
2022-10-01T06:39:11.120Z,94831.44
2022-10-01T06:41:37.756Z,94826.16
2022-10-01T06:44:05.690Z,94830.41
2022-10-01T06:46:35.329Z,94821.72
2022-10-01T06:49:01.985Z,94823.28
2022-10-01T06:51:47.196Z,94825.50
2022-10-01T06:54:18.296Z,94825.56
2022-10-01T06:56:44.885Z,94828.63
2022-10-01T06:59:11.401Z,94825.13
2022-10-01T07:01:38.379Z,94826.34
2022-10-01T07:04:05.290Z,94815.97
2022-10-01T07:06:32.575Z,94820.34
2022-10-01T07:08:59.121Z,94809.81
2022-10-01T07:11:27.148Z,94803.91
2022-10-01T07:13:54.658Z,94810.81
2022-10-01T07:16:21.495Z,94804.09
2022-10-01T07:18:48.072Z,94809.88
2022-10-01T07:21:14.597Z,94802.06
2022-10-01T07:23:41.210Z,94792.88
2022-10-01T07:26:09.150Z,94805.16
2022-10-01T07:28:35.838Z,94795.19
2022-10-01T07:31:09.654Z,94796.81
2022-10-01T07:33:36.175Z,94790.44
2022-10-01T07:36:05.050Z,94787.03
2022-10-01T07:38:33.392Z,94795.59
2022-10-01T07:41:02.491Z,94790.94
2022-10-01T07:43:30.967Z,94779.97
2022-10-01T07:45:58.265Z,94782.44
2022-10-01T07:48:26.111Z,94782.56
2022-10-01T07:50:52.899Z,94792.97
2022-10-01T07:53:19.570Z,94781.09
2022-10-01T07:55:46.626Z,94781.25
2022-10-01T07:58:13.261Z,94787.66
2022-10-01T08:00:39.942Z,94789.53
2022-10-01T08:03:06.800Z,94787.88
2022-10-01T08:05:35.830Z,94789.41
2022-10-01T08:08:06.985Z,94785.28
2022-10-01T08:10:36.421Z,94787.00
2022-10-01T08:13:14.221Z,94782.84
2022-10-01T08:15:45.747Z,94784.97
2022-10-01T08:18:12.618Z,94780.81
2022-10-01T08:20:39.602Z,94783.41
2022-10-01T08:23:08.968Z,94783.19
2022-10-01T08:25:35.881Z,94772.91
2022-10-01T08:28:03.579Z,94771.31
2022-10-01T08:30:30.812Z,94768.88
2022-10-01T08:32:58.884Z,94774.75
2022-10-01T08:35:26.366Z,94766.69
2022-10-01T08:37:54.821Z,94765.53
2022-10-01T08:40:21.881Z,94763.44
2022-10-01T08:42:56.010Z,94762.50
2022-10-01T08:45:43.201Z,94760.56
2022-10-01T08:48:16.636Z,94752.34
2022-10-01T08:50:54.962Z,94757.69
2022-10-01T08:53:34.148Z,94776.38
2022-10-01T08:56:03.654Z,94770.72
2022-10-01T08:58:42.479Z,94764.13
2022-10-01T09:01:11.339Z,94765.91
2022-10-01T09:03:39.381Z,94765.91
2022-10-01T09:06:18.127Z,94769.00
2022-10-01T09:08:47.605Z,94772.91
2022-10-01T09:11:53.236Z,94763.84
2022-10-01T09:14:27.203Z,94760.66
2022-10-01T09:17:12.333Z,94757.41
2022-10-01T09:19:56.837Z,94763.72
2022-10-01T09:22:41.534Z,94759.34
2022-10-01T09:25:22.673Z,94764.53
2022-10-01T09:27:51.476Z,94763.25
2022-10-01T09:30:22.096Z,94763.56
2022-10-01T09:33:11.747Z,94765.31
2022-10-01T09:35:44.090Z,94759.69
2022-10-01T09:38:20.481Z,94751.13
2022-10-01T09:40:50.070Z,94753.22
2022-10-01T09:43:19.918Z,94762.94
2022-10-01T09:45:47.360Z,94749.22
2022-10-01T09:48:22.319Z,94750.66
2022-10-01T09:50:58.179Z,94754.19
2022-10-01T09:54:06.086Z,94753.06
2022-10-01T09:56:42.408Z,94764.38
2022-10-01T09:59:17.285Z,94759.00
2022-10-01T10:01:51.891Z,94747.06
2022-10-01T10:04:21.302Z,94751.72
2022-10-01T10:09:48.019Z,94755.44
2022-10-01T10:12:28.318Z,94760.91
2022-10-01T10:14:56.844Z,94756.53
2022-10-01T10:17:26.914Z,94752.19
2022-10-01T10:19:54.516Z,94752.00
2022-10-01T10:22:27.015Z,94758.28
2022-10-01T10:24:57.830Z,94758.41
2022-10-01T10:27:29.115Z,94750.69
2022-10-01T10:30:24.324Z,94756.16
2022-10-01T10:32:51.998Z,94745.22
2022-10-01T10:35:28.828Z,94757.78
2022-10-01T10:37:57.566Z,94764.25
2022-10-01T10:40:29.776Z,94759.34
2022-10-01T10:42:58.638Z,94760.00
2022-10-01T10:45:37.331Z,94761.66
2022-10-01T10:48:11.812Z,94778.22
2022-10-01T10:50:42.576Z,94770.28
2022-10-01T10:53:22.236Z,94766.13
2022-10-01T10:56:04.236Z,94761.56
2022-10-01T10:58:42.282Z,94757.22
2022-10-01T11:01:13.656Z,94757.41
2022-10-01T11:03:57.348Z,94765.00
2022-10-01T11:06:27.243Z,94764.03
2022-10-01T11:09:04.837Z,94765.16
2022-10-01T11:11:53.491Z,94772.28
2022-10-01T11:14:31.975Z,94778.31
2022-10-01T11:17:21.737Z,94779.38
2022-10-01T11:20:18.599Z,94787.75
2022-10-01T11:22:59.323Z,94788.09
2022-10-01T11:26:03.671Z,94787.19
2022-10-01T11:28:58.380Z,94782.78
2022-10-01T11:32:19.347Z,94787.28
2022-10-01T11:35:10.051Z,94799.63
2022-10-01T11:37:49.002Z,94799.91
2022-10-01T11:40:27.112Z,94797.13
2022-10-01T11:43:00.151Z,94804.50
2022-10-01T11:45:40.436Z,94807.22
2022-10-01T11:48:13.433Z,94812.16
2022-10-01T11:50:48.564Z,94811.81
2022-10-01T11:53:30.825Z,94821.13
2022-10-01T11:56:22.483Z,94823.38
2022-10-01T11:59:13.700Z,94814.31
2022-10-01T12:01:49.695Z,94811.97
2022-10-01T12:04:28.092Z,94811.91
2022-10-01T12:07:33.634Z,94810.50
2022-10-01T12:10:22.087Z,94809.41
2022-10-01T12:13:00.104Z,94815.88
2022-10-01T12:15:34.052Z,94819.63
2022-10-01T12:18:06.493Z,94814.91
2022-10-01T12:20:40.830Z,94816.53
2022-10-01T12:23:17.905Z,94812.63
2022-10-01T12:25:55.364Z,94807.47
2022-10-01T12:29:17.671Z,94811.44
2022-10-01T12:32:05.068Z,94800.59
2022-10-01T12:34:42.448Z,94815.88
2022-10-01T12:37:21.764Z,94810.88
2022-10-01T12:40:03.833Z,94816.63
2022-10-01T12:42:45.196Z,94804.44
2022-10-01T12:45:23.703Z,94809.09
2022-10-01T12:48:01.791Z,94814.25
2022-10-01T12:51:12.486Z,94807.16
2022-10-01T12:53:41.283Z,94806.22
2022-10-01T12:56:30.921Z,94808.81
2022-10-01T12:59:12.580Z,94808.47
2022-10-01T13:01:48.157Z,94812.53
2022-10-01T13:04:20.668Z,94817.53
2022-10-01T13:07:05.602Z,94820.44
2022-10-01T13:10:10.391Z,94808.28
2022-10-01T13:12:56.470Z,94814.41
2022-10-01T13:15:31.898Z,94809.75
2022-10-01T13:18:25.014Z,94821.53
2022-10-01T13:21:26.694Z,94813.78
2022-10-01T13:24:03.340Z,94814.91
2022-10-01T13:26:29.844Z,94807.84
2022-10-01T13:29:00.692Z,94799.44
2022-10-01T13:31:38.642Z,94805.22
2022-10-01T13:34:39.896Z,94800.91
2022-10-01T13:37:12.017Z,94815.75
2022-10-01T13:39:42.102Z,94802.72
2022-10-01T13:42:27.357Z,94810.59
2022-10-01T13:44:57.939Z,94818.66
2022-10-01T13:47:25.794Z,94817.56
2022-10-01T13:49:56.382Z,94820.06
2022-10-01T13:52:23.380Z,94817.50
2022-10-01T13:54:52.706Z,94815.00
2022-10-01T13:57:30.360Z,94814.88
2022-10-01T14:00:12.335Z,94831.13
2022-10-01T14:02:45.143Z,94820.91
2022-10-01T14:05:17.471Z,94828.72
2022-10-01T14:07:48.990Z,94826.47
2022-10-01T14:10:16.466Z,94829.06
2022-10-01T14:13:05.021Z,94825.81
2022-10-01T14:15:59.592Z,94818.19
2022-10-01T14:18:34.862Z,94811.44
2022-10-01T14:21:43.225Z,94809.66
2022-10-01T14:24:12.751Z,94812.53
2022-10-01T14:27:20.163Z,94816.16
2022-10-01T14:29:58.673Z,94819.06
2022-10-01T14:32:51.014Z,94825.00
2022-10-01T14:35:38.457Z,94826.31
2022-10-01T14:38:12.726Z,94821.47
2022-10-01T14:40:42.662Z,94826.31
2022-10-01T14:43:23.420Z,94823.91
2022-10-01T14:46:15.421Z,94833.72
2022-10-01T14:48:42.606Z,94823.75
2022-10-01T14:51:28.005Z,94821.97
2022-10-01T14:53:57.826Z,94816.00
2022-10-01T14:56:26.088Z,94814.94
2022-10-01T14:58:58.118Z,94817.50
2022-10-01T15:01:25.751Z,94817.47
2022-10-01T15:03:52.983Z,94824.56
2022-10-01T15:06:22.808Z,94825.06
2022-10-01T15:08:52.259Z,94823.28
2022-10-01T15:11:26.990Z,94823.13
2022-10-01T15:13:57.452Z,94819.94
2022-10-01T15:16:29.088Z,94824.44
2022-10-01T15:19:03.411Z,94832.78
2022-10-01T15:21:34.829Z,94829.59
2022-10-01T15:24:04.262Z,94824.72
2022-10-01T15:26:32.619Z,94829.44
2022-10-01T15:29:12.295Z,94828.53
2022-10-01T15:31:39.890Z,94836.31
2022-10-01T15:34:10.983Z,94834.84
2022-10-01T15:36:39.144Z,94835.34
2022-10-01T15:39:18.328Z,94842.50
2022-10-01T15:41:51.633Z,94844.25
2022-10-01T15:44:38.542Z,94835.19
2022-10-01T15:47:20.650Z,94831.63
2022-10-01T15:50:00.917Z,94840.34
2022-10-01T15:52:48.464Z,94837.75
2022-10-01T15:55:17.711Z,94838.31
2022-10-01T15:57:48.196Z,94847.69
2022-10-01T16:00:27.191Z,94841.03
2022-10-01T16:02:56.248Z,94851.72
2022-10-01T16:05:26.200Z,94856.72
2022-10-01T16:07:58.474Z,94853.84
2022-10-01T16:10:42.088Z,94864.34
2022-10-01T16:13:43.213Z,94863.00
2022-10-01T16:16:12.926Z,94857.34
2022-10-01T16:18:40.558Z,94864.38
2022-10-01T16:21:10.644Z,94853.72
2022-10-01T16:23:37.183Z,94857.34
2022-10-01T16:26:32.653Z,94861.25
2022-10-01T16:29:19.403Z,94865.66
2022-10-01T16:31:46.080Z,94857.91
2022-10-01T16:34:14.997Z,94870.34
2022-10-01T16:36:42.328Z,94872.72
2022-10-01T16:39:13.720Z,94881.47
2022-10-01T16:41:41.270Z,94878.75
2022-10-01T16:44:12.685Z,94885.72
2022-10-01T16:46:40.444Z,94896.19
2022-10-01T16:49:14.543Z,94891.47
2022-10-01T16:51:42.349Z,94896.66
2022-10-01T16:54:24.540Z,94889.56
2022-10-01T16:56:52.351Z,94899.84
2022-10-01T16:59:22.676Z,94914.75
2022-10-01T17:01:53.534Z,94907.44
2022-10-01T17:04:20.696Z,94911.97
2022-10-01T17:06:48.068Z,94915.53
2022-10-01T17:09:14.663Z,94908.25
2022-10-01T17:11:43.425Z,94908.22
2022-10-01T17:14:16.672Z,94920.41
2022-10-01T17:16:43.842Z,94915.50
2022-10-01T17:19:12.536Z,94915.84
2022-10-01T17:21:39.426Z,94928.13
2022-10-01T17:24:06.321Z,94924.13
2022-10-01T17:26:36.002Z,94928.94
2022-10-01T17:29:02.703Z,94938.63
2022-10-01T17:31:30.649Z,94926.69
2022-10-01T17:33:57.735Z,94935.09
2022-10-01T17:36:24.258Z,94951.81
2022-10-01T17:38:50.819Z,94949.78
2022-10-01T17:41:17.390Z,94953.81
2022-10-01T17:43:43.952Z,94947.03
2022-10-01T17:46:10.589Z,94953.34
2022-10-01T17:48:37.249Z,94958.22
2022-10-01T17:51:09.218Z,94957.09
2022-10-01T17:53:42.238Z,94972.09
2022-10-01T17:56:14.318Z,94966.81
2022-10-01T17:58:45.046Z,94960.84
2022-10-01T18:01:17.065Z,94963.88
2022-10-01T18:03:43.780Z,94975.34
2022-10-01T18:06:14.278Z,94972.69
2022-10-01T18:08:54.594Z,94978.81
2022-10-01T18:11:22.596Z,94982.63
2022-10-01T18:13:50.847Z,94984.53
2022-10-01T18:16:19.441Z,94996.09
2022-10-01T18:21:33.523Z,95000.34
2022-10-01T18:24:04.161Z,94996.38
2022-10-01T18:26:32.321Z,95009.59
2022-10-01T18:28:59.070Z,95003.75
2022-10-01T18:31:29.159Z,95011.56
2022-10-01T18:33:58.091Z,95012.00
2022-10-01T18:36:58.844Z,95009.16
2022-10-01T18:39:45.169Z,95016.41
2022-10-01T18:42:49.446Z,95015.84
2022-10-01T18:45:51.055Z,95040.41
2022-10-01T18:48:32.924Z,95027.16
2022-10-01T18:51:24.358Z,95038.13
2022-10-01T18:53:58.363Z,95035.50
2022-10-01T18:56:33.909Z,95040.97
2022-10-01T18:59:00.637Z,95039.50
2022-10-01T19:01:48.943Z,95043.22
2022-10-01T19:04:38.743Z,95040.59
2022-10-01T19:07:23.435Z,95043.94
2022-10-01T19:10:13.220Z,95049.16
2022-10-01T19:13:13.822Z,95044.56
2022-10-01T19:15:48.219Z,95049.31
2022-10-01T19:18:40.321Z,95053.94
2022-10-01T19:21:12.837Z,95054.38
2022-10-01T19:24:01.207Z,95058.63
2022-10-01T19:26:40.046Z,95053.56
2022-10-01T19:29:25.276Z,95049.28
2022-10-01T19:32:00.106Z,95064.41
2022-10-01T19:34:41.955Z,95067.94
2022-10-01T19:37:22.857Z,95077.84
2022-10-01T19:39:51.537Z,95077.47
2022-10-01T19:42:23.429Z,95088.56
2022-10-01T19:45:03.066Z,95077.97
2022-10-01T19:47:41.045Z,95098.44
2022-10-01T19:50:25.030Z,95105.56
2022-10-01T19:52:55.604Z,95107.22
2022-10-01T19:55:24.244Z,95127.94
2022-10-01T19:57:51.705Z,95125.69
2022-10-01T20:00:21.716Z,95124.59
2022-10-01T20:03:11.097Z,95127.47
2022-10-01T20:05:53.025Z,95133.13
2022-10-01T20:08:39.282Z,95133.75
2022-10-01T20:11:24.781Z,95135.50
2022-10-01T20:13:57.077Z,95138.13
2022-10-01T20:16:47.237Z,95139.56
2022-10-01T20:19:29.736Z,95144.28
2022-10-01T20:22:22.086Z,95150.47
2022-10-01T20:24:58.900Z,95158.53
2022-10-01T20:27:51.550Z,95160.75
2022-10-01T20:30:20.422Z,95165.56
2022-10-01T20:33:07.966Z,95174.72
2022-10-01T20:36:02.577Z,95182.38
2022-10-01T20:38:36.496Z,95179.88
2022-10-01T20:41:11.979Z,95189.50
2022-10-01T20:44:11.675Z,95181.25
2022-10-01T20:46:54.605Z,95200.00
2022-10-01T20:49:36.723Z,95187.91
2022-10-01T20:52:37.812Z,95196.25
2022-10-01T20:55:15.413Z,95202.38
2022-10-01T20:57:47.234Z,95190.69
2022-10-01T21:00:19.439Z,95202.34
2022-10-01T21:02:50.994Z,95204.84
2022-10-01T21:05:19.066Z,95212.38
2022-10-01T21:07:58.980Z,95218.63
2022-10-01T21:10:34.752Z,95228.03
2022-10-01T21:13:15.085Z,95217.84
2022-10-01T21:16:13.294Z,95228.53
2022-10-01T21:18:46.043Z,95241.50
2022-10-01T21:21:37.507Z,95243.81
2022-10-01T21:24:25.971Z,95241.38
2022-10-01T21:27:20.580Z,95245.91
2022-10-01T21:30:08.512Z,95249.50
2022-10-01T21:33:00.105Z,95246.31
2022-10-01T21:35:50.576Z,95258.91
2022-10-01T21:38:28.406Z,95261.00
2022-10-01T21:41:26.493Z,95259.44
2022-10-01T21:44:34.721Z,95274.66
2022-10-01T21:47:10.537Z,95269.59
2022-10-01T21:49:52.203Z,95271.81
2022-10-01T21:52:58.202Z,95276.34
2022-10-01T21:56:00.594Z,95285.66
2022-10-01T21:59:04.284Z,95286.53
2022-10-01T22:01:35.361Z,95307.28
2022-10-01T22:04:20.926Z,95302.13
2022-10-01T22:06:59.167Z,95302.94
2022-10-01T22:09:48.501Z,95303.84
2022-10-01T22:12:15.337Z,95302.69
2022-10-01T22:14:44.997Z,95310.03
2022-10-01T22:17:19.884Z,95307.53
2022-10-01T22:19:51.002Z,95298.53
2022-10-01T22:22:30.007Z,95304.03
2022-10-01T22:25:00.221Z,95303.59
2022-10-01T22:27:33.556Z,95309.03
2022-10-01T22:30:09.181Z,95321.13
2022-10-01T22:32:58.340Z,95314.91
2022-10-01T22:35:30.955Z,95331.06
2022-10-01T22:38:05.422Z,95333.00
2022-10-01T22:40:42.074Z,95339.44
2022-10-01T22:43:11.391Z,95341.38
2022-10-01T22:45:46.480Z,95345.13
2022-10-01T22:48:33.929Z,95344.97
2022-10-01T22:51:45.537Z,95343.09
2022-10-01T22:54:39.845Z,95344.06
2022-10-01T22:57:16.869Z,95349.19
2022-10-01T22:59:47.587Z,95348.88
2022-10-01T23:02:22.929Z,95352.22
2022-10-01T23:05:13.404Z,95366.53
2022-10-01T23:07:53.136Z,95356.34
2022-10-01T23:10:23.994Z,95355.66
2022-10-01T23:12:50.686Z,95360.91
2022-10-01T23:15:26.454Z,95374.00
2022-10-01T23:18:24.640Z,95375.91
2022-10-01T23:20:54.405Z,95367.00
2022-10-01T23:23:20.916Z,95372.59
2022-10-01T23:25:56.600Z,95360.09
2022-10-01T23:28:46.801Z,95372.94
2022-10-01T23:31:22.759Z,95377.63
2022-10-01T23:34:30.908Z,95384.78
2022-10-01T23:37:20.984Z,95378.59
2022-10-01T23:40:09.396Z,95375.84
2022-10-01T23:42:35.953Z,95378.91
2022-10-01T23:45:15.260Z,95381.91
2022-10-01T23:47:56.968Z,95383.81
2022-10-01T23:50:29.932Z,95387.81
2022-10-01T23:53:19.743Z,95380.19
2022-10-01T23:56:43.103Z,95389.44
2022-10-01T23:59:31.671Z,95385.81
